Poca, West Virginia
Current Conditions -  °F | °C
As of 7:54 PM on Monday 20 Oct 2014 (Local Time) from KCRW Reporting Station
Overcast Overcast  
Wind Chill: 53°   Ceiling: 7500
Heat Index: 53°   Visibility: 10mi
Dew Point: 50°   Wind: 3mph
Humidity: 89%   Direction: 320°NW
Pressure: 29.93"   Gusts: NA
Location:  38.47°N, 81.81°W
Report Text: KCRW 202354Z 32003KT 10SM BKN075 OVC110 12/10 A2993 RMK AO2 SLP136 60001 T01170100 10156 20117 55003
Loading
Personal Weather Stations






























Interactive Weather Map
Tropical Storm Tracking
New forecast layout! Learn more

10-Day Weather Forecast

Advertisements
Track Severe Weather on mobile